sensor_id;sensor_type;location;lat;lon;timestamp;pressure;altitude;pressure_sealevel;temperature;humidity
45894;BME280;31603;51.148;16.932;2022-09-03T00:02:04;100469.03;;;15.21;100.00
45894;BME280;31603;51.148;16.932;2022-09-03T00:04:38;100472.38;;;15.11;100.00
45894;BME280;31603;51.148;16.932;2022-09-03T00:07:15;100470.75;;;15.22;100.00
45894;BME280;31603;51.148;16.932;2022-09-03T00:09:46;100466.16;;;15.16;100.00
45894;BME280;31603;51.148;16.932;2022-09-03T00:12:15;100464.88;;;15.00;100.00
45894;BME280;31603;51.148;16.932;2022-09-03T00:14:46;100464.31;;;14.91;100.00
45894;BME280;31603;51.148;16.932;2022-09-03T00:17:17;100462.22;;;14.75;100.00
45894;BME280;31603;51.148;16.932;2022-09-03T00:19:51;100433.56;;;14.81;100.00
45894;BME280;31603;51.148;16.932;2022-09-03T00:22:24;100462.66;;;14.90;100.00
45894;BME280;31603;51.148;16.932;2022-09-03T00:24:53;100447.13;;;14.71;100.00
45894;BME280;31603;51.148;16.932;2022-09-03T00:27:22;100455.91;;;14.68;100.00
45894;BME280;31603;51.148;16.932;2022-09-03T00:29:52;100457.38;;;14.71;100.00
45894;BME280;31603;51.148;16.932;2022-09-03T00:32:24;100460.50;;;14.74;100.00
45894;BME280;31603;51.148;16.932;2022-09-03T00:34:56;100459.44;;;14.75;100.00
45894;BME280;31603;51.148;16.932;2022-09-03T00:37:27;100449.97;;;14.46;100.00
45894;BME280;31603;51.148;16.932;2022-09-03T00:39:54;100442.94;;;14.43;100.00
45894;BME280;31603;51.148;16.932;2022-09-03T00:42:37;100461.59;;;14.55;100.00
45894;BME280;31603;51.148;16.932;2022-09-03T00:45:24;100434.59;;;14.68;100.00
45894;BME280;31603;51.148;16.932;2022-09-03T00:48:02;100444.84;;;14.50;100.00
45894;BME280;31603;51.148;16.932;2022-09-03T00:50:42;100455.31;;;14.41;100.00
45894;BME280;31603;51.148;16.932;2022-09-03T00:53:21;100466.63;;;14.39;100.00
45894;BME280;31603;51.148;16.932;2022-09-03T00:55:55;100443.84;;;14.37;100.00
45894;BME280;31603;51.148;16.932;2022-09-03T00:58:40;100458.00;;;14.29;100.00
45894;BME280;31603;51.148;16.932;2022-09-03T01:01:14;100463.31;;;14.31;100.00
45894;BME280;31603;51.148;16.932;2022-09-03T01:03:51;100439.75;;;14.03;100.00
45894;BME280;31603;51.148;16.932;2022-09-03T01:06:28;100471.72;;;14.42;100.00
45894;BME280;31603;51.148;16.932;2022-09-03T01:09:11;100464.53;;;14.16;100.00
45894;BME280;31603;51.148;16.932;2022-09-03T01:11:48;100446.16;;;14.22;100.00
45894;BME280;31603;51.148;16.932;2022-09-03T01:14:30;100455.16;;;14.36;100.00
45894;BME280;31603;51.148;16.932;2022-09-03T01:17:07;100468.63;;;14.32;100.00
45894;BME280;31603;51.148;16.932;2022-09-03T01:20:11;100459.97;;;14.04;100.00
45894;BME280;31603;51.148;16.932;2022-09-03T01:23:12;100445.59;;;13.95;100.00
45894;BME280;31603;51.148;16.932;2022-09-03T01:25:53;100444.16;;;14.11;100.00
45894;BME280;31603;51.148;16.932;2022-09-03T01:28:36;100467.66;;;14.02;100.00
45894;BME280;31603;51.148;16.932;2022-09-03T01:31:15;100450.97;;;13.83;100.00
45894;BME280;31603;51.148;16.932;2022-09-03T01:33:49;100458.72;;;14.00;100.00
45894;BME280;31603;51.148;16.932;2022-09-03T01:36:23;100441.00;;;13.82;100.00
45894;BME280;31603;51.148;16.932;2022-09-03T01:38:55;100434.34;;;13.65;100.00
45894;BME280;31603;51.148;16.932;2022-09-03T01:41:33;100452.47;;;13.86;100.00
45894;BME280;31603;51.148;16.932;2022-09-03T01:44:30;100456.94;;;13.62;100.00
45894;BME280;31603;51.148;16.932;2022-09-03T01:47:11;100448.63;;;13.62;100.00
45894;BME280;31603;51.148;16.932;2022-09-03T01:49:47;100445.28;;;13.53;100.00
45894;BME280;31603;51.148;16.932;2022-09-03T01:52:23;100452.88;;;13.58;100.00
45894;BME280;31603;51.148;16.932;2022-09-03T01:55:04;100442.13;;;13.49;100.00
45894;BME280;31603;51.148;16.932;2022-09-03T02:00:24;100442.31;;;13.55;100.00
45894;BME280;31603;51.148;16.932;2022-09-03T02:02:52;100445.59;;;13.38;100.00
45894;BME280;31603;51.148;16.932;2022-09-03T02:05:20;100436.81;;;13.10;100.00
45894;BME280;31603;51.148;16.932;2022-09-03T02:07:54;100453.72;;;13.33;100.00
45894;BME280;31603;51.148;16.932;2022-09-03T02:10:24;100445.34;;;13.08;100.00
45894;BME280;31603;51.148;16.932;2022-09-03T02:12:55;100401.28;;;12.88;100.00
45894;BME280;31603;51.148;16.932;2022-09-03T02:15:24;100419.94;;;12.93;100.00
45894;BME280;31603;51.148;16.932;2022-09-03T02:17:54;100458.53;;;12.99;100.00
45894;BME280;31603;51.148;16.932;2022-09-03T02:20:26;100451.97;;;13.00;100.00
45894;BME280;31603;51.148;16.932;2022-09-03T02:22:55;100451.31;;;13.05;100.00
45894;BME280;31603;51.148;16.932;2022-09-03T02:25:25;100444.06;;;12.66;100.00
45894;BME280;31603;51.148;16.932;2022-09-03T02:27:54;100444.69;;;12.68;100.00
45894;BME280;31603;51.148;16.932;2022-09-03T02:30:21;100445.88;;;12.85;100.00
45894;BME280;31603;51.148;16.932;2022-09-03T02:32:49;100445.75;;;12.67;100.00
45894;BME280;31603;51.148;16.932;2022-09-03T02:35:16;100421.81;;;12.54;100.00
45894;BME280;31603;51.148;16.932;2022-09-03T02:37:42;100454.56;;;12.89;100.00
45894;BME280;31603;51.148;16.932;2022-09-03T02:40:09;100455.50;;;12.69;100.00
45894;BME280;31603;51.148;16.932;2022-09-03T02:42:36;100450.78;;;12.83;100.00
45894;BME280;31603;51.148;16.932;2022-09-03T02:45:09;100461.06;;;12.56;100.00
45894;BME280;31603;51.148;16.932;2022-09-03T02:47:39;100460.00;;;12.64;100.00
45894;BME280;31603;51.148;16.932;2022-09-03T02:50:09;100464.94;;;12.42;100.00
45894;BME280;31603;51.148;16.932;2022-09-03T02:52:36;100447.63;;;12.73;100.00
45894;BME280;31603;51.148;16.932;2022-09-03T02:55:03;100445.41;;;12.50;100.00
45894;BME280;31603;51.148;16.932;2022-09-03T02:57:29;100449.00;;;12.44;100.00
45894;BME280;31603;51.148;16.932;2022-09-03T02:59:56;100452.19;;;12.41;100.00
45894;BME280;31603;51.148;16.932;2022-09-03T03:02:22;100449.84;;;12.44;100.00
45894;BME280;31603;51.148;16.932;2022-09-03T03:04:49;100465.22;;;12.20;100.00
45894;BME280;31603;51.148;16.932;2022-09-03T03:07:16;100453.75;;;12.10;100.00
45894;BME280;31603;51.148;16.932;2022-09-03T03:09:43;100453.31;;;12.20;100.00
45894;BME280;31603;51.148;16.932;2022-09-03T03:12:09;100446.03;;;12.45;100.00
45894;BME280;31603;51.148;16.932;2022-09-03T03:14:36;100410.44;;;12.31;100.00
45894;BME280;31603;51.148;16.932;2022-09-03T03:17:02;100445.59;;;12.48;100.00
45894;BME280;31603;51.148;16.932;2022-09-03T03:19:29;100455.44;;;12.18;100.00
45894;BME280;31603;51.148;16.932;2022-09-03T03:21:56;100459.69;;;12.20;100.00
45894;BME280;31603;51.148;16.932;2022-09-03T03:24:24;100466.47;;;11.98;100.00
45894;BME280;31603;51.148;16.932;2022-09-03T03:26:52;100451.00;;;11.64;100.00
45894;BME280;31603;51.148;16.932;2022-09-03T03:29:25;100450.34;;;11.75;100.00
45894;BME280;31603;51.148;16.932;2022-09-03T03:31:52;100464.97;;;11.75;100.00
45894;BME280;31603;51.148;16.932;2022-09-03T03:34:28;100458.25;;;11.91;100.00
45894;BME280;31603;51.148;16.932;2022-09-03T03:36:54;100409.91;;;11.55;100.00
45894;BME280;31603;51.148;16.932;2022-09-03T03:39:21;100447.84;;;11.93;100.00
45894;BME280;31603;51.148;16.932;2022-09-03T03:41:49;100454.19;;;12.20;100.00
45894;BME280;31603;51.148;16.932;2022-09-03T03:44:16;100464.38;;;12.00;100.00
45894;BME280;31603;51.148;16.932;2022-09-03T03:46:46;100467.56;;;12.10;100.00
45894;BME280;31603;51.148;16.932;2022-09-03T03:49:12;100462.03;;;11.90;100.00
45894;BME280;31603;51.148;16.932;2022-09-03T03:51:38;100459.28;;;12.10;100.00
45894;BME280;31603;51.148;16.932;2022-09-03T03:54:05;100464.78;;;11.84;100.00
45894;BME280;31603;51.148;16.932;2022-09-03T03:56:33;100459.69;;;11.87;100.00
45894;BME280;31603;51.148;16.932;2022-09-03T03:59:01;100467.72;;;11.69;100.00
45894;BME280;31603;51.148;16.932;2022-09-03T04:01:28;100461.78;;;11.65;100.00
45894;BME280;31603;51.148;16.932;2022-09-03T04:03:55;100471.13;;;11.57;100.00
45894;BME280;31603;51.148;16.932;2022-09-03T04:06:22;100429.53;;;11.13;100.00
45894;BME280;31603;51.148;16.932;2022-09-03T04:08:49;100468.34;;;11.57;100.00
45894;BME280;31603;51.148;16.932;2022-09-03T04:11:20;100474.28;;;11.41;100.00
45894;BME280;31603;51.148;16.932;2022-09-03T04:13:48;100476.66;;;11.71;100.00
45894;BME280;31603;51.148;16.932;2022-09-03T04:16:17;100475.81;;;11.77;100.00
45894;BME280;31603;51.148;16.932;2022-09-03T04:18:44;100474.09;;;11.63;100.00
45894;BME280;31603;51.148;16.932;2022-09-03T04:21:14;100469.88;;;11.67;100.00
45894;BME280;31603;51.148;16.932;2022-09-03T04:23:42;100480.44;;;11.37;100.00
45894;BME280;31603;51.148;16.932;2022-09-03T04:26:11;100446.84;;;11.00;100.00
45894;BME280;31603;51.148;16.932;2022-09-03T04:28:38;100442.22;;;11.00;100.00
45894;BME280;31603;51.148;16.932;2022-09-03T04:31:07;100480.00;;;11.33;100.00
45894;BME280;31603;51.148;16.932;2022-09-03T04:33:36;100484.84;;;11.24;100.00
45894;BME280;31603;51.148;16.932;2022-09-03T04:36:04;100475.94;;;11.22;100.00
45894;BME280;31603;51.148;16.932;2022-09-03T04:38:31;100489.28;;;11.32;100.00
45894;BME280;31603;51.148;16.932;2022-09-03T04:40:58;100490.16;;;11.39;100.00
45894;BME280;31603;51.148;16.932;2022-09-03T04:43:26;100438.88;;;11.12;100.00
45894;BME280;31603;51.148;16.932;2022-09-03T04:45:56;100474.06;;;11.29;100.00
45894;BME280;31603;51.148;16.932;2022-09-03T04:48:23;100474.03;;;11.36;100.00
45894;BME280;31603;51.148;16.932;2022-09-03T04:50:51;100477.66;;;11.30;100.00
45894;BME280;31603;51.148;16.932;2022-09-03T04:53:17;100489.34;;;11.52;100.00
45894;BME280;31603;51.148;16.932;2022-09-03T04:55:44;100487.00;;;11.69;100.00
45894;BME280;31603;51.148;16.932;2022-09-03T04:58:10;100492.34;;;11.77;100.00
45894;BME280;31603;51.148;16.932;2022-09-03T05:00:37;100484.91;;;11.71;100.00
45894;BME280;31603;51.148;16.932;2022-09-03T05:03:04;100493.41;;;12.16;100.00
45894;BME280;31603;51.148;16.932;2022-09-03T05:05:30;100495.75;;;11.92;100.00
45894;BME280;31603;51.148;16.932;2022-09-03T05:07:59;100500.81;;;12.15;100.00
45894;BME280;31603;51.148;16.932;2022-09-03T05:10:30;100508.03;;;12.23;100.00
45894;BME280;31603;51.148;16.932;2022-09-03T05:12:58;100496.19;;;12.09;100.00
45894;BME280;31603;51.148;16.932;2022-09-03T05:15:25;100486.81;;;12.23;100.00
45894;BME280;31603;51.148;16.932;2022-09-03T05:17:55;100503.09;;;12.51;100.00
45894;BME280;31603;51.148;16.932;2022-09-03T05:20:21;100505.44;;;12.41;100.00
45894;BME280;31603;51.148;16.932;2022-09-03T05:22:48;100501.53;;;12.82;100.00
45894;BME280;31603;51.148;16.932;2022-09-03T05:25:15;100514.81;;;13.05;100.00
45894;BME280;31603;51.148;16.932;2022-09-03T05:27:44;100494.13;;;12.76;100.00
45894;BME280;31603;51.148;16.932;2022-09-03T05:30:12;100512.88;;;13.12;100.00
45894;BME280;31603;51.148;16.932;2022-09-03T05:32:39;100496.28;;;13.12;100.00
45894;BME280;31603;51.148;16.932;2022-09-03T05:35:08;100511.59;;;13.15;100.00
45894;BME280;31603;51.148;16.932;2022-09-03T05:37:35;100503.09;;;13.55;100.00
45894;BME280;31603;51.148;16.932;2022-09-03T05:40:02;100504.03;;;13.42;100.00
45894;BME280;31603;51.148;16.932;2022-09-03T05:42:30;100482.66;;;13.24;100.00
45894;BME280;31603;51.148;16.932;2022-09-03T05:44:59;100488.13;;;13.69;100.00
45894;BME280;31603;51.148;16.932;2022-09-03T05:47:25;100501.81;;;13.82;100.00
45894;BME280;31603;51.148;16.932;2022-09-03T05:49:52;100498.25;;;13.75;100.00
45894;BME280;31603;51.148;16.932;2022-09-03T05:52:18;100494.81;;;13.55;100.00
45894;BME280;31603;51.148;16.932;2022-09-03T05:54:45;100496.91;;;13.59;100.00
45894;BME280;31603;51.148;16.932;2022-09-03T05:57:12;100493.00;;;13.67;100.00
45894;BME280;31603;51.148;16.932;2022-09-03T05:59:40;100498.50;;;13.73;100.00
45894;BME280;31603;51.148;16.932;2022-09-03T06:02:06;100503.84;;;13.93;100.00
45894;BME280;31603;51.148;16.932;2022-09-03T06:04:32;100477.53;;;13.91;100.00
45894;BME280;31603;51.148;16.932;2022-09-03T06:06:59;100501.94;;;14.19;100.00
45894;BME280;31603;51.148;16.932;2022-09-03T06:09:25;100501.44;;;14.47;100.00
45894;BME280;31603;51.148;16.932;2022-09-03T06:11:52;100507.81;;;14.29;100.00
45894;BME280;31603;51.148;16.932;2022-09-03T06:14:20;100476.44;;;14.17;100.00
45894;BME280;31603;51.148;16.932;2022-09-03T06:16:49;100474.38;;;14.31;100.00
45894;BME280;31603;51.148;16.932;2022-09-03T06:19:17;100498.59;;;14.60;100.00
45894;BME280;31603;51.148;16.932;2022-09-03T06:21:45;100513.59;;;14.71;100.00
45894;BME280;31603;51.148;16.932;2022-09-03T06:24:15;100503.34;;;14.90;100.00
45894;BME280;31603;51.148;16.932;2022-09-03T06:26:42;100411.09;;;14.16;100.00
45894;BME280;31603;51.148;16.932;2022-09-03T06:29:09;100508.50;;;14.86;100.00
45894;BME280;31603;51.148;16.932;2022-09-03T06:31:36;100521.13;;;15.31;100.00
45894;BME280;31603;51.148;16.932;2022-09-03T06:34:04;100507.13;;;15.56;100.00
45894;BME280;31603;51.148;16.932;2022-09-03T06:36:31;100513.25;;;15.16;100.00
45894;BME280;31603;51.148;16.932;2022-09-03T06:38:58;100503.06;;;16.00;100.00
45894;BME280;31603;51.148;16.932;2022-09-03T06:41:26;100526.88;;;15.66;100.00
45894;BME280;31603;51.148;16.932;2022-09-03T06:43:57;100524.88;;;16.08;100.00
45894;BME280;31603;51.148;16.932;2022-09-03T06:46:27;100525.13;;;15.95;100.00
45894;BME280;31603;51.148;16.932;2022-09-03T06:48:54;100510.41;;;15.95;100.00
45894;BME280;31603;51.148;16.932;2022-09-03T06:51:23;100462.78;;;15.56;100.00
45894;BME280;31603;51.148;16.932;2022-09-03T06:53:51;100528.16;;;16.05;100.00
45894;BME280;31603;51.148;16.932;2022-09-03T06:56:20;100528.31;;;16.46;100.00
45894;BME280;31603;51.148;16.932;2022-09-03T06:58:50;100524.81;;;16.74;100.00
45894;BME280;31603;51.148;16.932;2022-09-03T07:01:18;100515.03;;;16.48;100.00
45894;BME280;31603;51.148;16.932;2022-09-03T07:03:54;100502.25;;;16.47;100.00
45894;BME280;31603;51.148;16.932;2022-09-03T07:06:23;100523.63;;;16.81;100.00
45894;BME280;31603;51.148;16.932;2022-09-03T07:08:51;100526.72;;;16.73;100.00
45894;BME280;31603;51.148;16.932;2022-09-03T07:11:19;100526.25;;;16.53;100.00
45894;BME280;31603;51.148;16.932;2022-09-03T07:13:50;100528.75;;;17.42;100.00
45894;BME280;31603;51.148;16.932;2022-09-03T07:16:18;100508.59;;;17.63;100.00
45894;BME280;31603;51.148;16.932;2022-09-03T07:18:45;100512.44;;;17.05;100.00
45894;BME280;31603;51.148;16.932;2022-09-03T07:21:14;100526.19;;;17.52;100.00
45894;BME280;31603;51.148;16.932;2022-09-03T07:23:45;100522.41;;;17.58;100.00
45894;BME280;31603;51.148;16.932;2022-09-03T07:26:14;100515.81;;;17.76;100.00
45894;BME280;31603;51.148;16.932;2022-09-03T07:28:42;100520.38;;;17.82;100.00
45894;BME280;31603;51.148;16.932;2022-09-03T07:31:12;100496.69;;;17.68;100.00
45894;BME280;31603;51.148;16.932;2022-09-03T07:33:40;100519.72;;;17.92;100.00
45894;BME280;31603;51.148;16.932;2022-09-03T07:36:10;100532.03;;;18.46;100.00
45894;BME280;31603;51.148;16.932;2022-09-03T07:38:39;100533.34;;;18.61;100.00
45894;BME280;31603;51.148;16.932;2022-09-03T07:41:08;100530.13;;;18.69;100.00
45894;BME280;31603;51.148;16.932;2022-09-03T07:43:36;100498.41;;;17.97;100.00
45894;BME280;31603;51.148;16.932;2022-09-03T07:46:04;100527.50;;;18.23;100.00
45894;BME280;31603;51.148;16.932;2022-09-03T07:48:31;100533.03;;;18.40;100.00
45894;BME280;31603;51.148;16.932;2022-09-03T07:50:58;100531.84;;;18.53;100.00
45894;BME280;31603;51.148;16.932;2022-09-03T07:53:25;100530.78;;;18.93;100.00
45894;BME280;31603;51.148;16.932;2022-09-03T07:55:52;100532.75;;;19.14;100.00
45894;BME280;31603;51.148;16.932;2022-09-03T07:58:22;100524.94;;;19.16;100.00
45894;BME280;31603;51.148;16.932;2022-09-03T08:00:49;100539.16;;;19.37;100.00
45894;BME280;31603;51.148;16.932;2022-09-03T08:03:15;100534.66;;;19.80;100.00
45894;BME280;31603;51.148;16.932;2022-09-03T08:05:43;100527.03;;;19.75;100.00
45894;BME280;31603;51.148;16.932;2022-09-03T08:08:10;100514.72;;;19.71;100.00
45894;BME280;31603;51.148;16.932;2022-09-03T08:10:39;100536.53;;;19.74;100.00
45894;BME280;31603;51.148;16.932;2022-09-03T08:13:05;100529.31;;;19.56;100.00
45894;BME280;31603;51.148;16.932;2022-09-03T08:15:33;100538.50;;;19.52;100.00
45894;BME280;31603;51.148;16.932;2022-09-03T08:18:04;100533.25;;;20.09;100.00
45894;BME280;31603;51.148;16.932;2022-09-03T08:20:31;100508.44;;;20.18;100.00
45894;BME280;31603;51.148;16.932;2022-09-03T08:23:00;100530.91;;;20.65;100.00
45894;BME280;31603;51.148;16.932;2022-09-03T08:25:28;100532.53;;;20.56;100.00
45894;BME280;31603;51.148;16.932;2022-09-03T08:27:57;100521.69;;;20.33;100.00
45894;BME280;31603;51.148;16.932;2022-09-03T08:30:26;100524.47;;;20.28;100.00
45894;BME280;31603;51.148;16.932;2022-09-03T08:32:54;100493.16;;;20.26;100.00
45894;BME280;31603;51.148;16.932;2022-09-03T08:35:20;100515.88;;;20.02;100.00
45894;BME280;31603;51.148;16.932;2022-09-03T08:37:47;100508.50;;;20.55;100.00
45894;BME280;31603;51.148;16.932;2022-09-03T08:40:16;100510.94;;;20.94;100.00
45894;BME280;31603;51.148;16.932;2022-09-03T08:42:49;100524.31;;;21.39;97.89
45894;BME280;31603;51.148;16.932;2022-09-03T08:45:21;100506.91;;;21.32;95.62
45894;BME280;31603;51.148;16.932;2022-09-03T08:47:52;100491.66;;;21.76;96.09
45894;BME280;31603;51.148;16.932;2022-09-03T08:50:27;100490.50;;;21.46;95.65
45894;BME280;31603;51.148;16.932;2022-09-03T08:52:58;100503.16;;;21.84;96.22
45894;BME280;31603;51.148;16.932;2022-09-03T08:55:27;100503.69;;;21.71;96.11
45894;BME280;31603;51.148;16.932;2022-09-03T08:57:59;100507.88;;;21.74;95.86
45894;BME280;31603;51.148;16.932;2022-09-03T09:00:39;100514.09;;;22.57;87.96
45894;BME280;31603;51.148;16.932;2022-09-03T09:03:21;100495.31;;;21.92;94.01
45894;BME280;31603;51.148;16.932;2022-09-03T09:06:00;100508.47;;;22.47;89.09
45894;BME280;31603;51.148;16.932;2022-09-03T09:08:34;100498.34;;;21.54;90.36
45894;BME280;31603;51.148;16.932;2022-09-03T09:11:13;100499.00;;;22.23;91.88
45894;BME280;31603;51.148;16.932;2022-09-03T09:13:49;100509.59;;;22.67;87.49
45894;BME280;31603;51.148;16.932;2022-09-03T09:16:28;100511.63;;;23.31;80.71
45894;BME280;31603;51.148;16.932;2022-09-03T09:19:11;100513.31;;;23.32;81.64
45894;BME280;31603;51.148;16.932;2022-09-03T09:21:42;100494.72;;;23.46;78.66
45894;BME280;31603;51.148;16.932;2022-09-03T09:24:18;100500.06;;;23.92;74.73
45894;BME280;31603;51.148;16.932;2022-09-03T09:26:47;100496.56;;;23.71;78.82
45894;BME280;31603;51.148;16.932;2022-09-03T09:29:15;100484.56;;;23.01;79.01
45894;BME280;31603;51.148;16.932;2022-09-03T09:31:48;100486.44;;;23.21;76.87
45894;BME280;31603;51.148;16.932;2022-09-03T09:34:15;100481.69;;;23.66;75.08
45894;BME280;31603;51.148;16.932;2022-09-03T09:36:46;100480.00;;;24.09;70.34
45894;BME280;31603;51.148;16.932;2022-09-03T09:39:14;100459.88;;;23.52;75.33
45894;BME280;31603;51.148;16.932;2022-09-03T09:41:41;100471.38;;;24.00;72.22
45894;BME280;31603;51.148;16.932;2022-09-03T09:44:17;100480.72;;;23.41;73.99
45894;BME280;31603;51.148;16.932;2022-09-03T09:46:44;100475.81;;;24.36;67.32
45894;BME280;31603;51.148;16.932;2022-09-03T09:49:24;100475.09;;;23.91;70.76
45894;BME280;31603;51.148;16.932;2022-09-03T09:52:01;100468.09;;;24.52;70.72
45894;BME280;31603;51.148;16.932;2022-09-03T09:54:28;100470.44;;;24.44;69.61
45894;BME280;31603;51.148;16.932;2022-09-03T09:57:00;100473.66;;;24.57;68.46
45894;BME280;31603;51.148;16.932;2022-09-03T09:59:28;100473.94;;;24.26;67.52
45894;BME280;31603;51.148;16.932;2022-09-03T10:02:07;100474.84;;;23.38;71.23
45894;BME280;31603;51.148;16.932;2022-09-03T10:04:35;100472.28;;;23.46;68.81
45894;BME280;31603;51.148;16.932;2022-09-03T10:07:04;100473.81;;;24.41;62.56
45894;BME280;31603;51.148;16.932;2022-09-03T10:09:56;100478.31;;;24.08;64.48
45894;BME280;31603;51.148;16.932;2022-09-03T10:12:25;100437.03;;;22.45;73.25
45894;BME280;31603;51.148;16.932;2022-09-03T10:14:56;100455.09;;;23.03;71.59
45894;BME280;31603;51.148;16.932;2022-09-03T10:17:26;100447.75;;;24.01;64.50
45894;BME280;31603;51.148;16.932;2022-09-03T10:20:03;100459.66;;;24.52;61.36
45894;BME280;31603;51.148;16.932;2022-09-03T10:22:53;100432.03;;;24.59;56.69
45894;BME280;31603;51.148;16.932;2022-09-03T10:25:22;100445.53;;;23.10;65.27
45894;BME280;31603;51.148;16.932;2022-09-03T10:27:50;100449.25;;;23.49;65.35
45894;BME280;31603;51.148;16.932;2022-09-03T10:30:19;100439.91;;;24.57;58.66
45894;BME280;31603;51.148;16.932;2022-09-03T10:32:55;100446.13;;;24.54;56.27
45894;BME280;31603;51.148;16.932;2022-09-03T10:35:28;100437.03;;;25.10;54.21
45894;BME280;31603;51.148;16.932;2022-09-03T10:38:05;100445.44;;;24.09;59.79
45894;BME280;31603;51.148;16.932;2022-09-03T10:40:37;100441.72;;;25.38;54.54
45894;BME280;31603;51.148;16.932;2022-09-03T10:43:18;100405.38;;;24.75;54.35
45894;BME280;31603;51.148;16.932;2022-09-03T10:46:01;100443.50;;;24.86;53.30
45894;BME280;31603;51.148;16.932;2022-09-03T10:48:40;100434.63;;;25.60;51.68
45894;BME280;31603;51.148;16.932;2022-09-03T10:51:15;100425.69;;;24.72;56.70
45894;BME280;31603;51.148;16.932;2022-09-03T10:53:55;100434.56;;;25.03;56.21
45894;BME280;31603;51.148;16.932;2022-09-03T10:56:31;100430.84;;;25.08;56.52
45894;BME280;31603;51.148;16.932;2022-09-03T10:59:08;100426.38;;;23.66;63.50
45894;BME280;31603;51.148;16.932;2022-09-03T11:01:42;100424.75;;;23.55;69.35
45894;BME280;31603;51.148;16.932;2022-09-03T11:04:22;100429.22;;;25.44;58.88
45894;BME280;31603;51.148;16.932;2022-09-03T11:06:53;100429.47;;;26.19;48.58
45894;BME280;31603;51.148;16.932;2022-09-03T11:09:23;100425.34;;;25.59;50.55
45894;BME280;31603;51.148;16.932;2022-09-03T11:11:59;100433.31;;;24.42;55.74
45894;BME280;31603;51.148;16.932;2022-09-03T11:14:34;100428.59;;;25.10;52.33
45894;BME280;31603;51.148;16.932;2022-09-03T11:17:08;100418.72;;;24.64;53.69
45894;BME280;31603;51.148;16.932;2022-09-03T11:19:44;100387.69;;;25.17;51.83
45894;BME280;31603;51.148;16.932;2022-09-03T11:22:13;100399.97;;;25.45;49.00
45894;BME280;31603;51.148;16.932;2022-09-03T11:24:49;100414.50;;;26.64;45.40
45894;BME280;31603;51.148;16.932;2022-09-03T11:27:25;100401.69;;;24.56;56.19
45894;BME280;31603;51.148;16.932;2022-09-03T11:30:00;100415.31;;;26.37;49.70
45894;BME280;31603;51.148;16.932;2022-09-03T11:32:43;100406.41;;;25.84;47.18
45894;BME280;31603;51.148;16.932;2022-09-03T11:35:23;100387.81;;;25.83;45.25
45894;BME280;31603;51.148;16.932;2022-09-03T11:37:52;100401.63;;;25.98;46.42
45894;BME280;31603;51.148;16.932;2022-09-03T11:40:28;100401.56;;;26.91;45.49
45894;BME280;31603;51.148;16.932;2022-09-03T11:43:05;100371.81;;;25.78;44.96
45894;BME280;31603;51.148;16.932;2022-09-03T11:45:36;100390.81;;;25.54;46.54
45894;BME280;31603;51.148;16.932;2022-09-03T11:48:17;100379.88;;;25.85;47.45
45894;BME280;31603;51.148;16.932;2022-09-03T11:50:51;100370.31;;;23.90;56.21
45894;BME280;31603;51.148;16.932;2022-09-03T11:53:24;100373.53;;;23.78;56.17
45894;BME280;31603;51.148;16.932;2022-09-03T11:55:54;100367.72;;;23.60;59.31
45894;BME280;31603;51.148;16.932;2022-09-03T11:58:33;100369.03;;;24.60;56.37
45894;BME280;31603;51.148;16.932;2022-09-03T12:01:01;100377.31;;;26.76;47.41
45894;BME280;31603;51.148;16.932;2022-09-03T12:03:36;100376.44;;;24.93;51.21
45894;BME280;31603;51.148;16.932;2022-09-03T12:06:20;100370.88;;;24.45;55.11
45894;BME280;31603;51.148;16.932;2022-09-03T12:09:01;100387.78;;;25.31;54.77
45894;BME280;31603;51.148;16.932;2022-09-03T12:11:47;100367.31;;;25.02;52.22
45894;BME280;31603;51.148;16.932;2022-09-03T12:14:21;100380.84;;;26.82;48.11
45894;BME280;31603;51.148;16.932;2022-09-03T12:17:02;100375.94;;;26.46;49.16
45894;BME280;31603;51.148;16.932;2022-09-03T12:19:38;100367.06;;;25.79;51.06
45894;BME280;31603;51.148;16.932;2022-09-03T12:22:12;100382.09;;;25.69;51.87
45894;BME280;31603;51.148;16.932;2022-09-03T12:24:41;100377.06;;;27.14;44.97
45894;BME280;31603;51.148;16.932;2022-09-03T12:27:15;100380.47;;;28.68;40.36
45894;BME280;31603;51.148;16.932;2022-09-03T12:29:54;100364.63;;;29.50;37.83
45894;BME280;31603;51.148;16.932;2022-09-03T12:32:24;100354.63;;;29.18;35.77
45894;BME280;31603;51.148;16.932;2022-09-03T12:34:51;100370.69;;;28.83;37.43
45894;BME280;31603;51.148;16.932;2022-09-03T12:37:20;100330.81;;;27.82;38.26
45894;BME280;31603;51.148;16.932;2022-09-03T12:40:30;100280.13;;;28.35;37.38
45894;BME280;31603;51.148;16.932;2022-09-03T12:42:40;100346.56;;;28.06;39.05
45894;BME280;31603;51.148;16.932;2022-09-03T12:45:08;100354.53;;;27.81;39.59
45894;BME280;31603;51.148;16.932;2022-09-03T12:47:38;100373.97;;;29.16;38.26
45894;BME280;31603;51.148;16.932;2022-09-03T12:50:07;100369.78;;;28.57;42.04
45894;BME280;31603;51.148;16.932;2022-09-03T12:52:37;100354.53;;;27.36;42.07
45894;BME280;31603;51.148;16.932;2022-09-03T12:55:07;100359.03;;;25.86;47.11
45894;BME280;31603;51.148;16.932;2022-09-03T12:57:44;100300.72;;;24.78;51.93